createdAt,value
2019-01-20T00:00:31.920Z,100981.61
2019-01-20T00:03:03.808Z,100981.61
2019-01-20T00:05:35.410Z,100977.77
2019-01-20T00:08:08.418Z,100979.91
2019-01-20T00:10:40.186Z,100976.48
2019-01-20T00:13:11.760Z,100974.76
2019-01-20T00:15:45.304Z,100974.31
2019-01-20T00:18:17.152Z,100973.90
2019-01-20T00:20:49.032Z,100975.17
2019-01-20T00:23:20.706Z,100972.59
2019-01-20T00:25:52.544Z,100978.16
2019-01-20T00:28:24.137Z,100973.87
2019-01-20T00:30:58.736Z,100972.58
2019-01-20T00:33:30.403Z,100972.16
2019-01-20T00:36:03.221Z,100971.27
2019-01-20T00:38:34.712Z,100971.69
2019-01-20T00:41:06.311Z,100962.27
2019-01-20T00:43:38.445Z,100963.16
2019-01-20T00:46:10.072Z,100962.70
2019-01-20T00:48:41.859Z,100966.56
2019-01-20T00:51:16.481Z,100962.27
2019-01-20T00:53:47.990Z,100963.52
2019-01-20T00:56:20.014Z,100964.36
2019-01-20T00:58:51.527Z,100965.66
2019-01-20T01:01:23.226Z,100963.09
2019-01-20T01:03:55.572Z,100958.40
2019-01-20T01:06:27.227Z,100958.40
2019-01-20T01:08:58.842Z,100962.27
2019-01-20T01:11:31.807Z,100960.98
2019-01-20T01:14:03.846Z,100960.11
2019-01-20T01:16:35.728Z,100956.70
2019-01-20T01:19:07.481Z,100954.58
2019-01-20T01:21:39.441Z,100956.70
2019-01-20T01:24:10.995Z,100955.02
2019-01-20T01:26:42.631Z,100955.87
2019-01-20T01:29:14.350Z,100950.34
2019-01-20T01:31:46.108Z,100950.78
2019-01-20T01:34:17.683Z,100951.64
2019-01-20T01:36:49.322Z,100948.23
2019-01-20T01:39:23.187Z,100945.69
2019-01-20T01:41:54.842Z,100952.97
2019-01-20T01:44:26.357Z,100951.27
2019-01-20T01:46:58.045Z,100953.01
2019-01-20T01:49:29.939Z,100950.02
2019-01-20T01:52:01.634Z,100943.62
2019-01-20T01:54:33.229Z,100943.20
2019-01-20T01:57:04.758Z,100944.08
2019-01-20T01:59:36.312Z,100941.94
2019-01-20T02:02:09.326Z,100935.13
2019-01-20T02:04:40.868Z,100939.82
2019-01-20T02:07:12.465Z,100939.00
2019-01-20T02:09:43.956Z,100939.88
2019-01-20T02:12:15.500Z,100943.31
2019-01-20T02:14:46.991Z,100941.16
2019-01-20T02:17:20.288Z,100936.88
2019-01-20T02:19:52.081Z,100947.19
2019-01-20T02:22:24.103Z,100943.75
2019-01-20T02:24:55.701Z,100939.48
2019-01-20T02:27:27.308Z,100937.33
2019-01-20T02:29:58.886Z,100929.63
2019-01-20T02:32:31.745Z,100934.34
2019-01-20T02:35:03.658Z,100933.06
2019-01-20T02:37:35.370Z,100931.34
2019-01-20T02:40:08.704Z,100930.06
2019-01-20T02:42:40.433Z,100925.78
2019-01-20T02:45:13.530Z,100925.34
2019-01-20T02:47:45.274Z,100922.33
2019-01-20T02:50:17.768Z,100915.91
2019-01-20T02:52:49.462Z,100915.48
2019-01-20T02:55:30.205Z,100912.91
2019-01-20T02:58:02.177Z,100909.89
2019-01-20T03:00:33.698Z,100911.14
2019-01-20T03:03:05.460Z,100913.31
2019-01-20T03:05:38.943Z,100914.60
2019-01-20T03:08:10.298Z,100907.29
2019-01-20T03:10:41.793Z,100904.72
2019-01-20T03:13:13.382Z,100901.27
2019-01-20T03:15:44.834Z,100904.68
2019-01-20T03:18:16.361Z,100904.27
2019-01-20T03:20:48.039Z,100897.40
2019-01-20T03:23:19.930Z,100899.97
2019-01-20T03:25:51.454Z,100896.52
2019-01-20T03:28:23.249Z,100890.92
2019-01-20T03:30:54.753Z,100890.92
2019-01-20T03:33:26.569Z,100887.50
2019-01-20T03:35:58.132Z,100886.22
2019-01-20T03:38:30.019Z,100883.64
2019-01-20T03:41:01.493Z,100882.36
2019-01-20T03:43:33.291Z,100885.38
2019-01-20T03:46:04.751Z,100880.63
2019-01-20T03:48:36.387Z,100884.48
2019-01-20T03:51:08.178Z,100882.79
2019-01-20T03:53:39.822Z,100877.64
2019-01-20T03:56:11.375Z,100878.50
2019-01-20T03:58:43.137Z,100877.66
2019-01-20T04:01:14.670Z,100876.37
2019-01-20T04:03:46.540Z,100874.23
2019-01-20T04:06:18.269Z,100872.95
2019-01-20T04:08:49.792Z,100868.24
2019-01-20T04:11:21.317Z,100869.94
2019-01-20T04:13:53.167Z,100866.96
2019-01-20T04:16:24.714Z,100855.83
2019-01-20T04:18:56.600Z,100852.82
2019-01-20T04:21:28.115Z,100853.70
2019-01-20T04:23:59.713Z,100848.56
2019-01-20T04:26:31.230Z,100851.17
2019-01-20T04:29:02.908Z,100850.77
2019-01-20T04:31:34.418Z,100846.91
2019-01-20T04:34:06.172Z,100840.92
2019-01-20T04:36:37.854Z,100845.21
2019-01-20T04:39:09.832Z,100838.78
2019-01-20T04:41:41.405Z,100840.09
2019-01-20T04:44:13.134Z,100838.80
2019-01-20T04:46:44.672Z,100832.38
2019-01-20T04:49:16.514Z,100836.66
2019-01-20T04:51:48.344Z,100831.11
2019-01-20T04:54:20.180Z,100828.12
2019-01-20T04:56:51.655Z,100824.70
2019-01-20T04:59:26.250Z,100835.81
2019-01-20T05:01:57.716Z,100834.55
2019-01-20T05:04:29.499Z,100830.23
2019-01-20T05:07:01.316Z,100835.41
2019-01-20T05:09:33.084Z,100835.80
2019-01-20T05:12:04.534Z,100830.23
2019-01-20T05:14:41.279Z,100832.39
2019-01-20T05:17:12.812Z,100828.52
2019-01-20T05:19:44.537Z,100825.95
2019-01-20T05:22:16.074Z,100828.50
2019-01-20T05:24:47.579Z,100825.52
2019-01-20T05:27:19.055Z,100830.20
2019-01-20T05:29:50.641Z,100827.65
2019-01-20T05:32:22.098Z,100826.34
2019-01-20T05:34:56.976Z,100824.63
2019-01-20T05:37:29.020Z,100826.34
2019-01-20T05:40:00.747Z,100834.88
2019-01-20T05:42:32.264Z,100821.18
2019-01-20T05:45:04.119Z,100819.03
2019-01-20T05:47:35.586Z,100819.45
2019-01-20T05:50:10.252Z,100817.75
2019-01-20T05:52:41.950Z,100813.44
2019-01-20T05:55:14.608Z,100807.91
2019-01-20T05:57:46.219Z,100807.89
2019-01-20T06:00:46.475Z,100804.88
2019-01-20T06:03:17.971Z,100810.03
2019-01-20T06:05:49.545Z,100814.27
2019-01-20T06:08:21.369Z,100811.73
2019-01-20T06:10:52.890Z,100815.12
2019-01-20T06:13:24.421Z,100804.84
2019-01-20T06:15:56.091Z,100802.72
2019-01-20T06:18:27.583Z,100803.53
2019-01-20T06:20:59.131Z,100803.56
2019-01-20T06:23:30.820Z,100803.95
2019-01-20T06:26:02.615Z,100809.52
2019-01-20T06:28:34.143Z,100809.08
2019-01-20T06:31:06.044Z,100810.36
2019-01-20T06:33:37.504Z,100810.78
2019-01-20T06:36:09.108Z,100805.23
2019-01-20T06:38:40.586Z,100807.80
2019-01-20T06:41:12.479Z,100804.38
2019-01-20T06:43:44.029Z,100804.79
2019-01-20T06:46:18.312Z,100816.77
2019-01-20T06:48:49.791Z,100815.02
2019-01-20T06:51:21.548Z,100817.59
2019-01-20T06:53:53.272Z,100815.45
2019-01-20T06:56:24.916Z,100817.17
2019-01-20T06:58:56.411Z,100818.46
2019-01-20T07:01:27.945Z,100822.31
2019-01-20T07:03:59.492Z,100822.31
2019-01-20T07:06:31.166Z,100825.73
2019-01-20T07:09:03.214Z,100828.73
2019-01-20T07:11:36.137Z,100821.88
2019-01-20T07:14:07.870Z,100822.33
2019-01-20T07:16:39.527Z,100823.17
2019-01-20T07:19:11.108Z,100822.75
2019-01-20T07:21:42.748Z,100824.46
2019-01-20T07:24:15.725Z,100823.63
2019-01-20T07:26:47.506Z,100824.91
2019-01-20T07:29:19.028Z,100827.05
2019-01-20T07:31:52.860Z,100822.80
2019-01-20T07:34:24.408Z,100813.84
2019-01-20T07:36:56.156Z,100816.86
2019-01-20T07:39:27.674Z,100811.30
2019-01-20T07:41:59.488Z,100817.28
2019-01-20T07:44:31.048Z,100814.33
2019-01-20T07:47:02.620Z,100815.20
2019-01-20T07:49:34.191Z,100816.48
2019-01-20T07:52:05.788Z,100816.92
2019-01-20T07:54:37.368Z,100822.94
2019-01-20T07:57:09.317Z,100820.39
2019-01-20T07:59:41.969Z,100830.25
2019-01-20T08:02:13.768Z,100824.66
2019-01-20T08:04:45.326Z,100824.25
2019-01-20T08:07:17.270Z,100824.27
2019-01-20T08:09:49.056Z,100825.97
2019-01-20T08:12:23.606Z,100825.10
2019-01-20T08:14:54.153Z,100831.55
2019-01-20T08:17:25.960Z,100831.09
2019-01-20T08:19:57.494Z,100834.95
2019-01-20T08:22:29.072Z,100830.63
2019-01-20T08:25:00.826Z,100837.03
2019-01-20T08:27:32.423Z,100833.57
2019-01-20T08:30:03.923Z,100832.72
2019-01-20T08:32:35.532Z,100838.72
2019-01-20T08:35:07.676Z,100834.85
2019-01-20T08:37:39.259Z,100842.91
2019-01-20T08:40:20.489Z,100832.99
2019-01-20T08:42:52.353Z,100838.97
2019-01-20T08:46:06.432Z,100841.03
2019-01-20T08:48:38.158Z,100842.29
2019-01-20T08:51:10.025Z,100839.26
2019-01-20T08:53:41.662Z,100842.28
2019-01-20T08:56:13.235Z,100842.70
2019-01-20T08:58:45.079Z,100837.52
2019-01-20T09:01:16.656Z,100840.47
2019-01-20T09:03:48.409Z,100839.45
2019-01-20T09:06:19.929Z,100835.45
2019-01-20T09:08:51.485Z,100834.05
2019-01-20T09:11:23.284Z,100834.89
2019-01-20T09:13:55.138Z,100831.89
2019-01-20T09:16:26.698Z,100831.76
2019-01-20T09:18:58.367Z,100833.75
2019-01-20T09:21:29.958Z,100833.75
2019-01-20T09:24:01.762Z,100836.67
2019-01-20T09:26:33.634Z,100837.88
2019-01-20T09:29:07.311Z,100839.00
2019-01-20T09:31:38.794Z,100833.28
2019-01-20T09:34:10.519Z,100833.84
2019-01-20T09:36:42.201Z,100837.31
2019-01-20T09:39:20.420Z,100833.14
2019-01-20T09:41:52.275Z,100831.41
2019-01-20T09:44:24.264Z,100826.51
2019-01-20T09:46:55.802Z,100831.94
2019-01-20T09:49:27.626Z,100832.39
2019-01-20T09:51:59.186Z,100824.53
2019-01-20T09:54:30.974Z,100832.59
2019-01-20T09:57:02.773Z,100823.62
2019-01-20T09:59:34.394Z,100823.44
2019-01-20T10:02:05.973Z,100826.73
2019-01-20T10:04:37.781Z,100821.62
2019-01-20T10:07:11.593Z,100821.33
2019-01-20T10:09:43.299Z,100814.70
2019-01-20T10:12:15.178Z,100813.13
2019-01-20T10:14:46.958Z,100813.48
2019-01-20T10:17:18.539Z,100811.97
2019-01-20T10:19:50.390Z,100816.79
2019-01-20T10:22:21.931Z,100817.56
2019-01-20T10:24:56.683Z,100814.53
2019-01-20T10:27:28.213Z,100810.69
2019-01-20T10:30:00.195Z,100810.94
2019-01-20T10:32:33.785Z,100812.38
2019-01-20T10:35:05.949Z,100805.25
2019-01-20T10:37:38.630Z,100803.67
2019-01-20T10:40:10.300Z,100800.17
2019-01-20T10:42:42.270Z,100793.84
2019-01-20T10:45:14.231Z,100795.47
2019-01-20T10:47:45.826Z,100794.51
2019-01-20T10:50:17.906Z,100797.27
2019-01-20T10:52:49.475Z,100794.38
2019-01-20T10:55:21.108Z,100794.70
2019-01-20T10:57:52.670Z,100792.01
2019-01-20T11:00:28.160Z,100790.47
2019-01-20T11:02:59.909Z,100785.64
2019-01-20T11:05:32.835Z,100790.06
2019-01-20T11:08:04.522Z,100786.36
2019-01-20T11:10:37.638Z,100783.54
2019-01-20T11:13:09.191Z,100786.47
2019-01-20T11:15:40.837Z,100784.75
2019-01-20T11:18:12.368Z,100783.45
2019-01-20T11:20:44.048Z,100777.95
2019-01-20T11:23:15.917Z,100784.20
2019-01-20T11:25:47.735Z,100786.12
2019-01-20T11:28:19.511Z,100781.56
2019-01-20T11:30:53.037Z,100773.95
2019-01-20T11:33:24.569Z,100785.34
2019-01-20T11:35:56.468Z,100780.11
2019-01-20T11:38:28.101Z,100779.95
2019-01-20T11:40:59.883Z,100776.70
2019-01-20T11:43:31.508Z,100775.44
2019-01-20T11:46:03.313Z,100768.25
2019-01-20T11:48:34.934Z,100770.20
2019-01-20T11:51:06.491Z,100770.94
2019-01-20T11:53:38.018Z,100767.77
2019-01-20T11:56:09.804Z,100767.66
2019-01-20T11:58:41.654Z,100761.92
2019-01-20T12:01:13.461Z,100763.02
2019-01-20T12:03:45.033Z,100761.09
2019-01-20T12:06:16.859Z,100753.31
2019-01-20T12:08:49.640Z,100751.63
2019-01-20T12:11:21.640Z,100757.76
2019-01-20T12:13:53.441Z,100757.20
2019-01-20T12:16:25.238Z,100751.80
2019-01-20T12:18:56.916Z,100750.39
2019-01-20T12:21:28.724Z,100743.30
2019-01-20T12:24:00.503Z,100754.48
2019-01-20T12:26:32.327Z,100746.54
2019-01-20T12:29:03.922Z,100741.31
2019-01-20T12:31:35.796Z,100745.73
2019-01-20T12:34:07.507Z,100746.81
2019-01-20T12:36:39.204Z,100736.95
2019-01-20T12:39:33.081Z,100740.91
2019-01-20T12:42:04.746Z,100737.98
2019-01-20T12:44:36.681Z,100736.92
2019-01-20T12:47:08.146Z,100732.47
2019-01-20T12:49:40.219Z,100734.19
2019-01-20T12:52:12.273Z,100734.80
2019-01-20T12:54:43.985Z,100730.59
2019-01-20T12:57:15.924Z,100728.59
2019-01-20T12:59:47.802Z,100736.25
2019-01-20T13:02:19.607Z,100735.33
2019-01-20T13:04:51.246Z,100733.47
2019-01-20T13:07:23.136Z,100743.28
2019-01-20T13:09:54.711Z,100734.91
2019-01-20T13:12:26.326Z,100738.68
2019-01-20T13:14:57.863Z,100746.25
2019-01-20T13:17:29.601Z,100746.81
2019-01-20T13:20:01.160Z,100743.34
2019-01-20T13:22:33.225Z,100740.98
2019-01-20T13:25:05.278Z,100742.66
2019-01-20T13:27:41.585Z,100738.30
2019-01-20T13:30:17.826Z,100746.69
2019-01-20T13:32:49.629Z,100742.48
2019-01-20T13:35:22.916Z,100735.84
2019-01-20T13:38:08.415Z,100746.47
2019-01-20T13:40:53.871Z,100746.92
2019-01-20T13:43:25.650Z,100754.12
2019-01-20T13:45:57.284Z,100754.31
2019-01-20T13:48:28.946Z,100748.72
2019-01-20T13:51:01.858Z,100745.73
2019-01-20T13:53:33.417Z,100748.39
2019-01-20T13:56:05.100Z,100750.43
2019-01-20T13:58:36.917Z,100741.94
2019-01-20T14:01:08.931Z,100749.11
2019-01-20T14:03:40.953Z,100752.79
2019-01-20T14:06:12.770Z,100745.67
2019-01-20T14:08:44.582Z,100745.02
2019-01-20T14:11:16.352Z,100742.19
2019-01-20T14:13:48.194Z,100745.95
2019-01-20T14:16:20.047Z,100743.36
2019-01-20T14:18:52.119Z,100748.93
2019-01-20T14:21:23.925Z,100746.90
2019-01-20T14:23:55.951Z,100744.17
2019-01-20T14:26:28.612Z,100750.17
2019-01-20T14:29:00.515Z,100742.70
2019-01-20T14:31:32.277Z,100742.64
2019-01-20T14:34:04.211Z,100746.64
2019-01-20T14:36:35.724Z,100747.19
2019-01-20T14:39:13.834Z,100744.70
2019-01-20T14:41:45.351Z,100741.22
2019-01-20T14:44:17.298Z,100741.19
2019-01-20T14:46:49.329Z,100743.30
2019-01-20T14:49:21.310Z,100741.53
2019-01-20T14:51:52.966Z,100747.23
2019-01-20T14:54:24.926Z,100748.55
2019-01-20T14:56:58.159Z,100749.50
2019-01-20T14:59:30.122Z,100750.34
2019-01-20T15:02:01.980Z,100753.80
2019-01-20T15:04:33.679Z,100753.09
2019-01-20T15:07:06.236Z,100750.62
2019-01-20T15:09:38.282Z,100745.60
2019-01-20T15:12:09.859Z,100747.91
2019-01-20T15:14:41.805Z,100746.77
2019-01-20T15:17:13.823Z,100756.67
2019-01-20T15:19:45.508Z,100750.36
2019-01-20T15:22:17.144Z,100752.11
2019-01-20T15:24:48.932Z,100750.09
2019-01-20T15:27:20.682Z,100752.37
2019-01-20T15:29:52.554Z,100748.95
2019-01-20T15:32:24.318Z,100747.67
2019-01-20T15:34:56.148Z,100754.66
2019-01-20T15:37:29.440Z,100755.28
2019-01-20T15:40:01.558Z,100749.70
2019-01-20T15:42:33.392Z,100763.13
2019-01-20T15:45:05.355Z,100756.65
2019-01-20T15:47:37.309Z,100766.16
2019-01-20T15:50:13.564Z,100758.91
2019-01-20T15:52:45.298Z,100759.13
2019-01-20T15:55:17.312Z,100768.22
2019-01-20T15:57:48.861Z,100775.47
2019-01-20T16:00:23.973Z,100776.37
2019-01-20T16:02:56.061Z,100776.38
2019-01-20T16:05:29.018Z,100777.24
2019-01-20T16:08:00.794Z,100779.79
2019-01-20T16:10:32.747Z,100777.21
2019-01-20T16:13:04.476Z,100776.83
2019-01-20T16:15:38.503Z,100774.28
2019-01-20T16:18:14.202Z,100774.71
2019-01-20T16:20:43.886Z,100785.95
2019-01-20T16:23:16.195Z,100785.01
2019-01-20T16:25:48.441Z,100785.14
2019-01-20T16:28:20.572Z,100784.36
2019-01-20T16:30:52.890Z,100784.83
2019-01-20T16:33:25.795Z,100792.46
2019-01-20T16:35:59.231Z,100795.84
2019-01-20T16:38:31.306Z,100799.28
2019-01-20T16:41:03.763Z,100801.81
2019-01-20T16:43:35.517Z,100807.91
2019-01-20T16:46:07.833Z,100800.95
2019-01-20T16:48:40.275Z,100798.56
2019-01-20T16:51:12.289Z,100805.13
2019-01-20T16:53:44.082Z,100805.00
2019-01-20T16:56:15.983Z,100797.39
2019-01-20T16:58:51.395Z,100801.58
2019-01-20T17:01:22.953Z,100800.39
2019-01-20T17:03:55.101Z,100800.57
2019-01-20T17:06:27.213Z,100804.81
2019-01-20T17:08:59.237Z,100810.86
2019-01-20T17:11:31.462Z,100808.70
2019-01-20T17:14:03.668Z,100816.51
2019-01-20T17:16:35.680Z,100814.27
2019-01-20T17:19:07.757Z,100810.80
2019-01-20T17:21:39.544Z,100814.20
2019-01-20T17:24:11.355Z,100812.93
2019-01-20T17:26:43.893Z,100808.27
2019-01-20T17:29:15.975Z,100806.94
2019-01-20T17:31:48.138Z,100812.16
2019-01-20T17:34:19.986Z,100813.52
2019-01-20T17:36:52.014Z,100817.42
2019-01-20T17:39:24.384Z,100819.11
2019-01-20T17:41:56.811Z,100815.67
2019-01-20T17:44:28.438Z,100817.30
2019-01-20T17:47:00.512Z,100818.12
2019-01-20T17:49:33.480Z,100817.26
2019-01-20T17:52:06.150Z,100824.53
2019-01-20T17:54:37.914Z,100818.51
2019-01-20T17:57:10.317Z,100826.29
2019-01-20T17:59:43.029Z,100836.16
2019-01-20T18:02:15.169Z,100839.58
2019-01-20T18:04:47.008Z,100836.98
2019-01-20T18:07:19.046Z,100842.11
2019-01-20T18:09:50.742Z,100839.52
2019-01-20T18:12:22.386Z,100834.83
2019-01-20T18:14:54.553Z,100837.77
2019-01-20T18:17:26.704Z,100840.02
2019-01-20T18:19:58.724Z,100837.01
2019-01-20T18:22:30.631Z,100836.20
2019-01-20T18:25:02.188Z,100833.20
2019-01-20T18:27:33.873Z,100833.67
2019-01-20T18:30:09.179Z,100831.53
2019-01-20T18:32:41.314Z,100832.81
2019-01-20T18:35:14.216Z,100837.49
2019-01-20T18:37:46.541Z,100849.10
2019-01-20T18:40:21.035Z,100842.75
2019-01-20T18:42:52.979Z,100839.38
2019-01-20T18:45:28.674Z,100847.56
2019-01-20T18:48:01.241Z,100851.00
2019-01-20T18:50:35.723Z,100850.05
2019-01-20T18:53:07.763Z,100847.09
2019-01-20T18:55:39.811Z,100850.94
2019-01-20T18:58:11.639Z,100854.80
2019-01-20T19:00:47.677Z,100857.41
2019-01-20T19:03:19.478Z,100862.08
2019-01-20T19:05:51.404Z,100865.44
2019-01-20T19:08:23.171Z,100875.34
2019-01-20T19:10:54.837Z,100865.03
2019-01-20T19:13:26.561Z,100862.44
2019-01-20T19:15:58.262Z,100858.67
2019-01-20T19:18:32.804Z,100854.84
2019-01-20T19:21:04.658Z,100856.99
2019-01-20T19:23:36.301Z,100856.66
2019-01-20T19:26:07.909Z,100858.05
2019-01-20T19:28:39.616Z,100854.30
2019-01-20T19:31:11.276Z,100851.83
2019-01-20T19:33:45.153Z,100855.67
2019-01-20T19:36:17.109Z,100855.33
2019-01-20T19:38:48.743Z,100859.97
2019-01-20T19:41:21.855Z,100860.42
2019-01-20T19:43:53.856Z,100860.02
2019-01-20T19:46:25.575Z,100868.16
2019-01-20T19:48:57.611Z,100870.34
2019-01-20T19:51:29.520Z,100869.91
2019-01-20T19:54:01.442Z,100869.09
2019-01-20T19:56:33.414Z,100872.56
2019-01-20T19:59:05.329Z,100880.28
2019-01-20T20:01:37.415Z,100882.41
2019-01-20T20:04:09.608Z,100886.29
2019-01-20T20:06:41.696Z,100891.88
2019-01-20T20:09:15.036Z,100900.46
2019-01-20T20:11:46.825Z,100900.48
2019-01-20T20:14:20.319Z,100906.52
2019-01-20T20:16:52.193Z,100907.36
2019-01-20T20:19:24.172Z,100908.25
2019-01-20T20:21:55.997Z,100917.27
2019-01-20T20:24:27.952Z,100918.59
2019-01-20T20:26:59.493Z,100919.89
2019-01-20T20:29:31.766Z,100924.64
2019-01-20T20:32:03.609Z,100931.07
2019-01-20T20:34:35.376Z,100930.62
2019-01-20T20:37:07.383Z,100937.52
2019-01-20T20:39:39.455Z,100932.82
2019-01-20T20:42:11.596Z,100938.37
2019-01-20T20:44:43.821Z,100940.55
2019-01-20T20:47:15.688Z,100946.14
2019-01-20T20:49:47.680Z,100940.55
2019-01-20T20:52:20.315Z,100942.66
2019-01-20T20:54:52.322Z,100943.48
2019-01-20T20:57:24.125Z,100941.75
2019-01-20T20:59:56.173Z,100941.33
2019-01-20T21:02:28.009Z,100952.91
2019-01-20T21:04:59.759Z,100952.45
2019-01-20T21:07:31.851Z,100952.06
2019-01-20T21:10:03.519Z,100958.88
2019-01-20T21:12:35.073Z,100952.00
2019-01-20T21:15:09.089Z,100961.91
2019-01-20T21:17:47.843Z,100962.36
2019-01-20T21:20:20.361Z,100970.47
2019-01-20T21:22:52.597Z,100969.58
2019-01-20T21:25:25.057Z,100972.53
2019-01-20T21:27:59.993Z,100974.27
2019-01-20T21:30:31.923Z,100980.26
2019-01-20T21:33:03.541Z,100973.38
2019-01-20T21:35:38.671Z,100973.95
2019-01-20T21:38:10.713Z,100972.23
2019-01-20T21:40:42.772Z,100972.24
2019-01-20T21:43:14.619Z,100973.13
2019-01-20T21:45:46.323Z,100969.20
2019-01-20T21:48:18.174Z,100976.55
2019-01-20T21:50:50.235Z,100979.05
2019-01-20T21:53:22.280Z,100972.16
2019-01-20T21:55:53.880Z,100969.56
2019-01-20T21:58:25.571Z,100976.38
2019-01-20T22:00:57.504Z,100973.38
2019-01-20T22:03:29.155Z,100978.11
2019-01-20T22:06:00.920Z,100979.42
2019-01-20T22:08:32.887Z,100976.83
2019-01-20T22:11:04.770Z,100981.92
2019-01-20T22:13:36.351Z,100984.88
2019-01-20T22:16:08.169Z,100989.62
2019-01-20T22:18:39.714Z,100990.47
2019-01-20T22:21:11.556Z,100986.16
2019-01-20T22:23:43.153Z,100987.41
2019-01-20T22:26:15.140Z,100986.07
2019-01-20T22:28:46.771Z,100989.08
2019-01-20T22:31:18.512Z,100987.44
2019-01-20T22:33:50.046Z,100986.21
2019-01-20T22:36:21.697Z,100991.79
2019-01-20T22:38:53.541Z,100990.47
2019-01-20T22:41:25.299Z,100985.32
2019-01-20T22:43:56.906Z,100985.86
2019-01-20T22:46:28.685Z,100988.05
2019-01-20T22:49:00.301Z,100993.08
2019-01-20T22:51:31.861Z,100986.17
2019-01-20T22:54:04.670Z,100990.08
2019-01-20T22:56:36.207Z,100984.40
2019-01-20T22:59:07.703Z,100983.59
2019-01-20T23:01:39.607Z,100987.55
2019-01-20T23:04:12.118Z,100985.87
2019-01-20T23:06:43.701Z,100991.02
2019-01-20T23:09:15.378Z,100994.03
2019-01-20T23:11:46.909Z,100985.48
2019-01-20T23:14:18.511Z,100987.62
2019-01-20T23:16:50.375Z,100985.93
2019-01-20T23:19:21.934Z,100986.31
2019-01-20T23:21:53.678Z,100996.17
2019-01-20T23:24:25.246Z,100995.70
2019-01-20T23:26:56.711Z,100994.82
2019-01-20T23:29:28.254Z,101002.52
2019-01-20T23:31:59.826Z,100998.19
2019-01-20T23:34:31.318Z,101006.80
2019-01-20T23:37:03.207Z,101001.68
2019-01-20T23:39:35.759Z,100997.38
2019-01-20T23:42:07.435Z,100993.14
2019-01-20T23:44:38.978Z,100997.91
2019-01-20T23:47:15.362Z,101003.45
2019-01-20T23:49:44.922Z,101003.84
2019-01-20T23:52:16.610Z,101002.98
2019-01-20T23:54:48.366Z,101001.31
2019-01-20T23:57:20.137Z,101002.14
2019-01-20T23:59:51.696Z,101003.46
